Ashcamp, KY (41512)

8:43 AM EST en Febrero 09, 2016 (GMT -0500)
Ramey Flats | | Change Station
CLOSE
Current Station
Estación meteorológica personal
Location: Clintwood, VA
Altura: 1795 ft
Estaciones meteorológicas cercanas
Aviso en curso: Winter Weather Advisory

Alt 1795 ft 37.21 °N, 82.44 °W | Updated 13 minutes ago

Nublado
Nublado
20.1 ° F
Sensación térmica 20 ° F
N
3.0
Viento Variable Viento desde Sur
Gusts 5.0 mph

Hoy
Alta -- | Baja -- ° F
--% Posibilidad de precipitaciones
Ayer
Alta -- | Baja -- ° F
Precip. -- pul
Presión 29.66 pul
Visibilidad 2.5 Millas
Nubes Muy nublado 1600 ft
Muy nublado 2500 ft
Nublado 3100 ft
Vientos helados 20 ° F
Punto de rocío 17 ° F
Humedad 86%
Precipitaciones 0.00 pul
Espesor de la nieve No disponible.
7:25 AM 6:02 PM
Luna nueva, 1% visible
METAR KLNP 091335Z AUTO 27007KT 2 1/2SM -SN BKN016 BKN025 OVC031 M06/M11 A2966 RMK AO2
Presión 29.66 pul
Visibilidad 2.5 Millas
Nubes Muy nublado 1600 ft
Muy nublado 2500 ft
Nublado 3100 ft
Vientos helados 20 ° F
Punto de rocío 17 ° F
Humedad 86%
Precipitaciones 0.00 pul
Espesor de la nieve No disponible.
7:25 AM 6:02 PM
Luna nueva, 1% visible
METAR KLNP 091335Z AUTO 27007KT 2 1/2SM -SN BKN016 BKN025 OVC031 M06/M11 A2966 RMK AO2

10-Day Weather Forecast

Almanac

Astronomía

Feb. 09, 2016 Salida Puesta
Hora real
Crepúsculo civil
Crepúsculo náutico
Crepúsculo astronómico
Luna
Horas de luz
Horas de luz
Tomorrow will be .
, % of the Moon is Illuminated

Extremos de hoy

Máximos del estado Bajos del estado

Community

WunderPhotos

Upload Photos

1,891,591 ¡fotos cargadas!

WunderBlog® & News

Nearby

Calidad del aire

  Calidad del aire Índice AQ Contaminante
Not available.

Grosos de nieve

Estación Profundido Altura

Actividad de terremotos

Ciudad Distance Mag. Tiempo y dato
Magnitud mínima muestra es 2,5.

Temperaturas de aguas costeras

Lugar Temperatura

Stations

Estaciones meteorológicas cercanas

Ubicación de la estación Temp. Vientos helados Punto de rocío Humedad Viento Precip. Alt Actualizado Tipo
                   

Watches & Warnings

Winter Weather Advisory
Issued: 4:00 AM EST Feb. 9, 2016 – National Weather Service

... Winter Weather Advisory remains in effect until 10 am EST
Wednesday...

* periods of snow showers will continue through Wednesday
morning... before gradually diminishing.

* Light snow will accumulate over a prolonged period... with storm
totals through Wednesday morning in the 2 to 4 inch range for
most areas. Above 2500 feet... localized accumulations of around
6 inches will be possible.

* Roads and walkways will become slippery... especially those
which are untreated. Localized heavy snow showers may also
bring greatly reduced visibility at times.

Precautionary/preparedness actions...

A Winter Weather Advisory for snow means that periods of snow
will cause primarily travel difficulties. Be prepared for snow
covered roads and limited visibilities... and use caution while
driving.